旭川空港の過去48時間の天気

旭川空港 (Asahikawa (Civil))

現在時刻: 2/22 15:40 JST (2/22 06:40 UTC) 以下の時間は現地時間です。

過去48時間のMETAR気象情報
時間 風向 風速(m/s) 視程 気温(℃) 湿度(%) 気圧(hPa) 天気現象
22 15:00 5 10km以上 3 60 1011
22 14:00 南南西 8 10km以上 4 52 1013
22 12:00 南南西 5 10km以上 3 52 1018
22 11:00 6 10km以上 2 51 1019
22 10:00 4 10km以上 0 55 1021
22 09:00 南南東 5 10km以上 -2 69 1022
22 08:00 南南東 7 10km以上 -4 74 1023
22 06:40 5 10km以上 -5 74 1024
21 20:00 南南東 3 10km以上 -5 86 1030 弱いしゅう雪
21 19:00 南南東 3 10km以上 -6 93 1031 弱いしゅう雪
21 18:10 2 5000m -4 86 1031 弱いしゅう雪
21 18:00 2 4900m -4 86 1031 弱いしゅう雪
21 17:00 不定 1 10km以上 -4 80 1030 弱いしゅう雪
21 16:00 北西 2 10km以上 -4 80 1030 弱いしゅう雪
21 15:00 北西 4 10km以上 -4 86 1029 弱いしゅう雪
21 14:48 北西 3 5000m -4 93 1029 弱いしゅう雪
21 14:36 北西 5 3100m -3 80 1029 弱いしゅう雪
21 14:00 西 4 10km以上 -3 80 1029 弱いしゅう雪
21 13:39 西北西 5 5000m -4 80 1029 弱いしゅう雪
21 13:16 北西 4 4900m -3 80 1029 弱いしゅう雪
21 13:00 北北西 2 5000m -3 74 1029 弱いしゅう雪
21 12:07 不定 1 5000m -3 86 1029 弱いしゅう雪
21 12:00 不定 1 3200m -4 86 1029 弱いしゅう雪
21 11:48 2 2400m -4 86 1029 弱いしゅう雪
21 11:39 2 1000m -4 86 1029 弱いしゅう雪
21 11:15 東北東 1 1400m -4 93 1029 弱いしゅう雪
21 11:00 不定 1 2300m -4 86 1030 弱いしゅう雪
21 10:46 南東 1 4900m -4 86 1030 弱いしゅう雪
21 10:29 不定 1 5000m -4 86 1030 弱いしゅう雪
21 10:12 西 2 1500m -4 86 1030 弱いしゅう雪
21 10:00 西 4 2300m -4 86 1030 弱いしゅう雪
21 09:49 西 5 4900m -4 80 1029 弱いしゅう雪
21 09:00 4 10km以上 -5 79 1029 周辺でしゅう雨
21 08:00 4 7000m -7 86 1029 弱いしゅう雪
21 07:00 3 10km以上 -7 79 1028 弱いしゅう雪
21 06:40 4 10km以上 -8 86 1028 弱いしゅう雪
RJEC 220600Z 19009KT 150V230 9999 FEW035 SCT050 BKN100 03/M04 Q1011
RJEC 220500Z 20015KT 9999 FEW035 SCT120 BKN/// 04/M05 Q1013
RJEC 220300Z 21010KT 180V250 9999 FEW030 SCT060 BKN130 03/M06 Q1018
RJEC 220200Z 19011KT 9999 FEW030 SCT060 BKN100 02/M07 Q1019
RJEC 220100Z 18008KT 150V220 9999 FEW030 SCT080 BKN100 00/M08 Q1021
RJEC 220000Z 16010KT 9999 FEW025 SCT035 BKN080 M02/M07 Q1022
RJEC 212300Z 16013KT 9999 FEW020 SCT030 BKN070 M04/M08 Q1023
RJEC 212140Z 17010KT 9999 FEW020 BKN070 M05/M09 Q1024 RMK 1CU020 7AC070 A3026
RJEC 211100Z 16006KT 9999 -SHSN FEW010 SCT030 BKN050 M05/M07 Q1030
RJEC 211000Z 15005KT 9999 -SHSN FEW010 SCT025 BKN045 M06/M07 Q1031
RJEC 210910Z 18003KT 160V240 5000 -SHSN FEW008 SCT015 BKN025 M04/M06 Q1031 RMK 1ST008 3ST015 6CU025 A3045
RJEC 210900Z 18003KT 4900 -SHSN FEW008 SCT015 BKN025 M04/M06 Q1031
RJEC 210800Z VRB01KT 9999 -SHSN FEW010 SCT025 BKN040 M04/M07 Q1030
RJEC 210700Z 32003KT 280V350 9999 -SHSN FEW010 SCT025 BKN040 M04/M07 Q1030
RJEC 210600Z 32008KT 9999 -SHSN FEW008 SCT012 BKN030 M04/M06 Q1029
RJEC 210548Z 32006KT 5000 R34/1500VP2000N -SHSN FEW005 SCT012 BKN025 M04/M05 Q1029 RMK 1ST005 4ST012 5CU025 A3040
RJEC 210536Z 31009KT 3100 -SHSN FEW005 BKN015 BKN025 M03/M06 Q1029 RMK 2ST005 5ST015 6CU025 A3040
RJEC 210500Z 27008KT 240V300 9999 -SHSN FEW008 SCT025 BKN040 M03/M06 Q1029
RJEC 210439Z 30010KT 5000 -SHSN FEW008 SCT020 BKN030 M04/M07 Q1029 RMK 1ST008 3CU020 5CU030 A3039 9999N-NE
RJEC 210416Z 31007KT 280V350 4900 -SHSN FEW008 SCT020 BKN030 M03/M06 Q1029 RMK 1ST008 4CU020 6CU030 A3039
RJEC 210400Z 33003KT 300V010 5000 -SHSN FEW010 SCT025 BKN035 M03/M07 Q1029
RJEC 210307Z VRB01KT 5000 -SHSN FEW010 SCT015 BKN030 M03/M05 Q1029 RMK 1ST010 3ST015 5CU030 A3040
RJEC 210300Z VRB01KT 3200 -SHSN FEW008 SCT015 BKN025 M04/M06 Q1029
RJEC 210248Z 01003KT 2400 R34/0900VP2000U -SHSN FEW005 SCT015 BKN025 M04/M06 Q1029 RMK 1ST005 3ST015 5CU025 A3041 9999NE
RJEC 210239Z 01004KT 1000 R34/0700VP2000D -SHSN FEW005 SCT009 BKN013 M04/M06 Q1029 RMK 1ST005 4ST009 6ST013 A3041
RJEC 210215Z 06002KT 1400 R34/1100VP2000D -SHSN FEW005 SCT010 BKN015 M04/M05 Q1029 RMK 1ST005 4ST010 6ST015 A3041
RJEC 210200Z VRB02KT 2300 R34/0650VP2000D -SHSN FEW005 SCT010 BKN020 M04/M06 Q1030
RJEC 210146Z 13001KT 4900 R34/1300VP2000N -SHSN FEW008 SCT015 BKN025 M04/M06 Q1030 RMK 1ST008 3ST015 5CU025 A3041
RJEC 210129Z VRB01KT 5000 -SHSN FEW008 SCT015 BKN025 M04/M06 Q1030 RMK 1ST008 3ST015 6CU025 A3041
RJEC 210112Z 27004KT 1500 R34/0900VP2000U -SHSN FEW005 SCT010 BKN015 M04/M06 Q1030 RMK 1ST005 3ST010 5ST015 A3041
RJEC 210100Z 27007KT 2300 R34/1200VP2000N -SHSN FEW005 SCT010 BKN015 M04/M06 Q1030
RJEC 210049Z 26010KT 210V280 4900 -SHSN FEW010 SCT015 BKN020 M04/M07 Q1029 RMK 1ST010 3ST015 5CU020 A3041
RJEC 210000Z 17008KT 9999 VCSH FEW015 SCT025 M05/M08 Q1029
RJEC 202300Z 17008KT 7000 -SHSN FEW010 SCT020 BKN035 M07/M09 Q1029
RJEC 202200Z 18005KT 9999 -SHSN FEW010 SCT020 BKN040 M07/M10 Q1028
RJEC 202140Z 17007KT 9999 -SHSN FEW010 SCT020 BKN045 M08/M10 Q1028 RMK 1ST010 3CU020 6CU045 A3038